< Typhoon 200801 2008 Season Typhoon 200803 >
Typhoon 200802 (RAMMASUN)
General InformationTrack Information on Google MapsDetailed Wind InformationAccess Analytics MapList of All Images || NewsDisaster Info.WeblogTrackbackTyphoon FrontTyphoon ImaginationResourceGoogle EarthGE AnimationAtom FeedGeoJSON
Detalied Best Track (Time Zone = UTC)
Year Month Day Hour Lat. Long. Pressure (hPa) Wind (kt) Class Image Chart
2008 5 7 00 7.8 133.3 1004 0 2 Image Chart
2008 5 7 06 7.8 132.5 1000 0 2 Image Chart
2008 5 7 12 8.1 131.8 1000 0 2 Image Chart
2008 5 7 18 8.5 131.6 996 35 3 Image Chart
2008 5 8 00 8.9 131.3 994 35 3 Image Chart
2008 5 8 06 9.4 131.3 992 40 3 Image Chart
2008 5 8 12 9.8 131.3 990 45 3 Image Chart
2008 5 8 18 10.2 131.5 985 50 4 Image Chart
2008 5 9 00 11.0 131.7 980 55 4 Image Chart
2008 5 9 06 11.8 132.0 970 65 5 Image Chart
2008 5 9 12 12.7 132.1 955 75 5 Image Chart
2008 5 9 18 13.6 132.1 945 85 5 Image Chart
2008 5 10 00 14.5 132.0 935 95 5 Image Chart
2008 5 10 06 15.5 132.1 925 100 5 Image Chart
2008 5 10 12 16.8 132.0 915 105 5 Image Chart
2008 5 10 18 18.1 131.9 915 105 5 Image Chart
2008 5 11 00 19.4 131.8 920 100 5 Image Chart
2008 5 11 06 20.7 132.1 925 95 5 Image Chart
2008 5 11 12 22.0 132.7 935 85 5 Image Chart
2008 5 11 18 23.7 133.5 945 80 5 Image Chart
2008 5 12 00 25.2 134.6 955 75 5 Image Chart
2008 5 12 06 27.3 136.3 965 70 5 Image Chart
2008 5 12 12 29.4 138.7 970 65 5 Image Chart
2008 5 12 18 30.5 140.2 980 55 4 Image Chart
2008 5 12 21 31.2 141.2 985 50 4 Image Chart
2008 5 13 00 31.8 142.2 988 0 6 Image Chart
2008 5 13 06 33.0 143.9 992 0 6 Image Chart
2008 5 13 12 33.6 145.3 1000 0 6 Image Chart
2008 5 13 18 34.3 147.4 1004 0 6 Image Chart
2008 5 14 00 34.9 149.9 1008 0 6 Image Chart
2008 5 14 06 35.5 152.2 1010 0 6 Image Chart
Japan Meteorological Agency Best Track Data | Correction Date : 2008-06-16
< Typhoon 200801 2008 Season Typhoon 200803 >

Help